sensor_id;sensor_type;location;lat;lon;timestamp;temperature;humidity
35559;DHT22;21661;50.794;-1.066;2022-11-20T00:02:18;8.40;99.90
35559;DHT22;21661;50.794;-1.066;2022-11-20T00:04:44;8.40;99.90
35559;DHT22;21661;50.794;-1.066;2022-11-20T00:07:09;8.50;99.90
35559;DHT22;21661;50.794;-1.066;2022-11-20T00:09:35;8.50;99.90
35559;DHT22;21661;50.794;-1.066;2022-11-20T00:12:00;8.50;99.90
35559;DHT22;21661;50.794;-1.066;2022-11-20T00:14:26;8.40;99.90
35559;DHT22;21661;50.794;-1.066;2022-11-20T00:16:51;8.40;99.90
35559;DHT22;21661;50.794;-1.066;2022-11-20T00:19:17;8.40;99.90
35559;DHT22;21661;50.794;-1.066;2022-11-20T00:21:42;8.40;99.90
35559;DHT22;21661;50.794;-1.066;2022-11-20T00:24:08;8.40;99.90
35559;DHT22;21661;50.794;-1.066;2022-11-20T00:26:33;8.40;99.90
35559;DHT22;21661;50.794;-1.066;2022-11-20T00:28:59;8.40;99.90
35559;DHT22;21661;50.794;-1.066;2022-11-20T00:31:25;8.40;99.90
35559;DHT22;21661;50.794;-1.066;2022-11-20T00:33:51;8.50;99.90
35559;DHT22;21661;50.794;-1.066;2022-11-20T00:36:18;8.40;99.90
35559;DHT22;21661;50.794;-1.066;2022-11-20T00:38:44;8.50;99.90
35559;DHT22;21661;50.794;-1.066;2022-11-20T00:41:11;8.50;99.90
35559;DHT22;21661;50.794;-1.066;2022-11-20T00:43:36;8.50;99.90
35559;DHT22;21661;50.794;-1.066;2022-11-20T00:46:09;8.50;99.90
35559;DHT22;21661;50.794;-1.066;2022-11-20T00:48:35;8.50;99.90
35559;DHT22;21661;50.794;-1.066;2022-11-20T00:51:01;8.60;99.90
35559;DHT22;21661;50.794;-1.066;2022-11-20T00:53:26;8.60;99.90
35559;DHT22;21661;50.794;-1.066;2022-11-20T00:55:56;8.60;99.90
35559;DHT22;21661;50.794;-1.066;2022-11-20T00:58:22;8.60;99.90
35559;DHT22;21661;50.794;-1.066;2022-11-20T01:00:47;8.70;99.90
35559;DHT22;21661;50.794;-1.066;2022-11-20T01:03:15;8.70;99.90
35559;DHT22;21661;50.794;-1.066;2022-11-20T01:05:41;8.70;99.90
35559;DHT22;21661;50.794;-1.066;2022-11-20T01:08:06;8.80;99.90
35559;DHT22;21661;50.794;-1.066;2022-11-20T01:10:32;8.80;99.90
35559;DHT22;21661;50.794;-1.066;2022-11-20T01:12:57;8.80;99.90
35559;DHT22;21661;50.794;-1.066;2022-11-20T01:15:41;8.90;99.90
35559;DHT22;21661;50.794;-1.066;2022-11-20T01:18:07;9.10;99.90
35559;DHT22;21661;50.794;-1.066;2022-11-20T01:20:36;9.30;99.90
35559;DHT22;21661;50.794;-1.066;2022-11-20T01:23:02;9.40;99.90
35559;DHT22;21661;50.794;-1.066;2022-11-20T01:25:28;9.50;99.90
35559;DHT22;21661;50.794;-1.066;2022-11-20T01:27:53;9.50;99.90
35559;DHT22;21661;50.794;-1.066;2022-11-20T01:30:19;9.70;99.90
35559;DHT22;21661;50.794;-1.066;2022-11-20T01:32:44;9.70;99.90
35559;DHT22;21661;50.794;-1.066;2022-11-20T01:35:10;9.80;99.90
35559;DHT22;21661;50.794;-1.066;2022-11-20T01:37:35;9.80;99.90
35559;DHT22;21661;50.794;-1.066;2022-11-20T01:40:01;9.80;99.90
35559;DHT22;21661;50.794;-1.066;2022-11-20T01:42:26;9.90;99.90
35559;DHT22;21661;50.794;-1.066;2022-11-20T01:48:15;9.80;99.90
35559;DHT22;21661;50.794;-1.066;2022-11-20T01:50:40;9.80;99.90
35559;DHT22;21661;50.794;-1.066;2022-11-20T01:53:07;9.80;99.90
35559;DHT22;21661;50.794;-1.066;2022-11-20T01:55:37;9.80;99.90
35559;DHT22;21661;50.794;-1.066;2022-11-20T01:58:04;9.80;99.90
35559;DHT22;21661;50.794;-1.066;2022-11-20T02:00:30;9.90;99.90
35559;DHT22;21661;50.794;-1.066;2022-11-20T02:02:59;9.90;99.90
35559;DHT22;21661;50.794;-1.066;2022-11-20T02:07:54;10.00;99.90
35559;DHT22;21661;50.794;-1.066;2022-11-20T02:10:20;10.10;99.90
35559;DHT22;21661;50.794;-1.066;2022-11-20T02:12:46;10.10;99.90
35559;DHT22;21661;50.794;-1.066;2022-11-20T02:15:31;10.00;99.90
35559;DHT22;21661;50.794;-1.066;2022-11-20T02:17:57;10.10;99.90
35559;DHT22;21661;50.794;-1.066;2022-11-20T02:20:23;10.10;99.90
35559;DHT22;21661;50.794;-1.066;2022-11-20T02:22:50;10.10;99.90
35559;DHT22;21661;50.794;-1.066;2022-11-20T02:25:19;10.10;99.90
35559;DHT22;21661;50.794;-1.066;2022-11-20T02:27:45;10.10;99.90
35559;DHT22;21661;50.794;-1.066;2022-11-20T02:30:10;10.10;99.90
35559;DHT22;21661;50.794;-1.066;2022-11-20T02:32:37;10.10;99.90
35559;DHT22;21661;50.794;-1.066;2022-11-20T02:35:07;10.10;99.90
35559;DHT22;21661;50.794;-1.066;2022-11-20T02:37:34;10.00;99.90
35559;DHT22;21661;50.794;-1.066;2022-11-20T02:40:02;10.00;99.90
35559;DHT22;21661;50.794;-1.066;2022-11-20T02:42:27;10.00;99.90
35559;DHT22;21661;50.794;-1.066;2022-11-20T02:44:53;10.00;99.90
35559;DHT22;21661;50.794;-1.066;2022-11-20T02:47:18;10.00;99.90
35559;DHT22;21661;50.794;-1.066;2022-11-20T02:49:44;10.00;99.90
35559;DHT22;21661;50.794;-1.066;2022-11-20T02:52:09;10.00;99.90
35559;DHT22;21661;50.794;-1.066;2022-11-20T02:54:34;10.00;99.90
35559;DHT22;21661;50.794;-1.066;2022-11-20T02:57:00;10.00;99.90
35559;DHT22;21661;50.794;-1.066;2022-11-20T02:59:25;10.10;99.90
35559;DHT22;21661;50.794;-1.066;2022-11-20T03:01:51;10.00;99.90
35559;DHT22;21661;50.794;-1.066;2022-11-20T03:04:16;10.00;99.90
35559;DHT22;21661;50.794;-1.066;2022-11-20T03:06:42;10.10;99.90
35559;DHT22;21661;50.794;-1.066;2022-11-20T03:09:07;10.10;99.90
35559;DHT22;21661;50.794;-1.066;2022-11-20T03:11:33;10.10;99.90
35559;DHT22;21661;50.794;-1.066;2022-11-20T03:14:01;10.10;99.90
35559;DHT22;21661;50.794;-1.066;2022-11-20T03:16:27;10.10;99.90
35559;DHT22;21661;50.794;-1.066;2022-11-20T03:18:52;10.20;99.90
35559;DHT22;21661;50.794;-1.066;2022-11-20T03:21:18;10.30;99.90
35559;DHT22;21661;50.794;-1.066;2022-11-20T03:23:43;10.30;99.90
35559;DHT22;21661;50.794;-1.066;2022-11-20T03:28:35;10.40;99.90
35559;DHT22;21661;50.794;-1.066;2022-11-20T03:31:07;10.40;99.90
35559;DHT22;21661;50.794;-1.066;2022-11-20T03:33:33;10.40;99.90
35559;DHT22;21661;50.794;-1.066;2022-11-20T03:36:05;10.40;99.90
35559;DHT22;21661;50.794;-1.066;2022-11-20T03:38:31;10.40;99.90
35559;DHT22;21661;50.794;-1.066;2022-11-20T03:41:07;10.40;99.90
35559;DHT22;21661;50.794;-1.066;2022-11-20T03:43:33;10.40;99.90
35559;DHT22;21661;50.794;-1.066;2022-11-20T03:45:58;10.30;99.90
35559;DHT22;21661;50.794;-1.066;2022-11-20T03:48:24;10.30;99.90
35559;DHT22;21661;50.794;-1.066;2022-11-20T03:50:50;10.20;99.90
35559;DHT22;21661;50.794;-1.066;2022-11-20T03:53:16;10.20;99.90
35559;DHT22;21661;50.794;-1.066;2022-11-20T03:55:42;10.20;99.90
35559;DHT22;21661;50.794;-1.066;2022-11-20T03:58:08;10.20;99.90
35559;DHT22;21661;50.794;-1.066;2022-11-20T04:00:33;10.20;99.90
35559;DHT22;21661;50.794;-1.066;2022-11-20T04:02:59;10.20;99.90
35559;DHT22;21661;50.794;-1.066;2022-11-20T04:05:25;10.20;99.90
35559;DHT22;21661;50.794;-1.066;2022-11-20T04:07:50;10.20;99.90
35559;DHT22;21661;50.794;-1.066;2022-11-20T04:10:16;10.30;99.90
35559;DHT22;21661;50.794;-1.066;2022-11-20T04:12:42;10.30;99.90
35559;DHT22;21661;50.794;-1.066;2022-11-20T04:15:07;10.30;99.90
35559;DHT22;21661;50.794;-1.066;2022-11-20T04:17:33;10.30;99.90
35559;DHT22;21661;50.794;-1.066;2022-11-20T04:19:58;10.40;99.90
35559;DHT22;21661;50.794;-1.066;2022-11-20T04:22:24;10.40;99.90
35559;DHT22;21661;50.794;-1.066;2022-11-20T04:24:50;10.40;99.90
35559;DHT22;21661;50.794;-1.066;2022-11-20T04:27:15;10.50;99.90
35559;DHT22;21661;50.794;-1.066;2022-11-20T04:29:41;10.50;99.90
35559;DHT22;21661;50.794;-1.066;2022-11-20T04:32:06;10.50;99.90
35559;DHT22;21661;50.794;-1.066;2022-11-20T04:34:32;10.50;99.90
35559;DHT22;21661;50.794;-1.066;2022-11-20T04:36:57;10.50;99.90
35559;DHT22;21661;50.794;-1.066;2022-11-20T04:39:23;10.50;99.90
35559;DHT22;21661;50.794;-1.066;2022-11-20T04:41:48;10.50;99.90
35559;DHT22;21661;50.794;-1.066;2022-11-20T04:44:33;10.50;99.90
35559;DHT22;21661;50.794;-1.066;2022-11-20T04:46:59;10.50;99.90
35559;DHT22;21661;50.794;-1.066;2022-11-20T04:49:24;10.40;99.90
35559;DHT22;21661;50.794;-1.066;2022-11-20T04:51:52;10.40;99.90
35559;DHT22;21661;50.794;-1.066;2022-11-20T04:54:18;10.50;99.90
35559;DHT22;21661;50.794;-1.066;2022-11-20T04:56:48;10.50;99.90
35559;DHT22;21661;50.794;-1.066;2022-11-20T04:59:14;10.50;99.90
35559;DHT22;21661;50.794;-1.066;2022-11-20T05:01:39;10.50;99.90
35559;DHT22;21661;50.794;-1.066;2022-11-20T05:04:05;10.50;99.90
35559;DHT22;21661;50.794;-1.066;2022-11-20T05:06:31;10.50;99.90
35559;DHT22;21661;50.794;-1.066;2022-11-20T05:08:56;10.60;99.90
35559;DHT22;21661;50.794;-1.066;2022-11-20T05:11:22;10.60;99.90
35559;DHT22;21661;50.794;-1.066;2022-11-20T05:13:48;10.60;99.90
35559;DHT22;21661;50.794;-1.066;2022-11-20T05:16:17;10.60;99.90
35559;DHT22;21661;50.794;-1.066;2022-11-20T05:18:42;10.60;99.90
35559;DHT22;21661;50.794;-1.066;2022-11-20T05:21:09;10.70;99.90
35559;DHT22;21661;50.794;-1.066;2022-11-20T05:23:35;10.70;99.90
35559;DHT22;21661;50.794;-1.066;2022-11-20T05:26:01;10.70;99.90
35559;DHT22;21661;50.794;-1.066;2022-11-20T05:28:27;10.80;99.90
35559;DHT22;21661;50.794;-1.066;2022-11-20T05:30:53;10.80;99.90
35559;DHT22;21661;50.794;-1.066;2022-11-20T05:33:19;10.80;99.90
35559;DHT22;21661;50.794;-1.066;2022-11-20T05:35:44;10.80;99.90
35559;DHT22;21661;50.794;-1.066;2022-11-20T05:38:10;10.90;99.90
35559;DHT22;21661;50.794;-1.066;2022-11-20T05:40:35;10.90;99.90
35559;DHT22;21661;50.794;-1.066;2022-11-20T05:43:01;10.90;99.90
35559;DHT22;21661;50.794;-1.066;2022-11-20T05:45:26;11.00;99.90
35559;DHT22;21661;50.794;-1.066;2022-11-20T05:47:52;11.00;99.90
35559;DHT22;21661;50.794;-1.066;2022-11-20T05:50:18;11.00;99.90
35559;DHT22;21661;50.794;-1.066;2022-11-20T05:52:43;11.00;99.90
35559;DHT22;21661;50.794;-1.066;2022-11-20T05:55:09;11.00;99.90
35559;DHT22;21661;50.794;-1.066;2022-11-20T05:57:34;11.00;99.90
35559;DHT22;21661;50.794;-1.066;2022-11-20T06:00:00;11.00;99.90
35559;DHT22;21661;50.794;-1.066;2022-11-20T06:02:25;11.00;99.90
35559;DHT22;21661;50.794;-1.066;2022-11-20T06:04:51;11.00;99.90
35559;DHT22;21661;50.794;-1.066;2022-11-20T06:07:16;11.10;99.90
35559;DHT22;21661;50.794;-1.066;2022-11-20T06:09:42;11.20;99.90
35559;DHT22;21661;50.794;-1.066;2022-11-20T06:12:07;11.20;99.90
35559;DHT22;21661;50.794;-1.066;2022-11-20T06:14:33;11.20;99.90
35559;DHT22;21661;50.794;-1.066;2022-11-20T06:16:59;11.20;99.90
35559;DHT22;21661;50.794;-1.066;2022-11-20T06:19:24;11.20;99.90
35559;DHT22;21661;50.794;-1.066;2022-11-20T06:21:49;11.20;99.90
35559;DHT22;21661;50.794;-1.066;2022-11-20T06:24:15;11.30;99.90
35559;DHT22;21661;50.794;-1.066;2022-11-20T06:26:41;11.30;99.90
35559;DHT22;21661;50.794;-1.066;2022-11-20T06:29:06;11.40;99.90
35559;DHT22;21661;50.794;-1.066;2022-11-20T06:31:32;11.30;99.90
35559;DHT22;21661;50.794;-1.066;2022-11-20T06:34:03;11.30;99.90
35559;DHT22;21661;50.794;-1.066;2022-11-20T06:36:28;11.30;99.90
35559;DHT22;21661;50.794;-1.066;2022-11-20T06:38:54;11.20;99.90
35559;DHT22;21661;50.794;-1.066;2022-11-20T06:41:20;11.30;99.90
35559;DHT22;21661;50.794;-1.066;2022-11-20T06:43:46;11.20;99.90
35559;DHT22;21661;50.794;-1.066;2022-11-20T06:46:12;11.20;99.90
35559;DHT22;21661;50.794;-1.066;2022-11-20T06:48:38;11.20;99.90
35559;DHT22;21661;50.794;-1.066;2022-11-20T06:51:04;11.10;99.90
35559;DHT22;21661;50.794;-1.066;2022-11-20T06:53:30;11.10;99.90
35559;DHT22;21661;50.794;-1.066;2022-11-20T06:55:56;11.00;99.90
35559;DHT22;21661;50.794;-1.066;2022-11-20T06:58:22;10.90;99.90
35559;DHT22;21661;50.794;-1.066;2022-11-20T07:00:47;10.90;99.90
35559;DHT22;21661;50.794;-1.066;2022-11-20T07:03:13;10.70;99.90
35559;DHT22;21661;50.794;-1.066;2022-11-20T07:05:38;10.70;99.90
35559;DHT22;21661;50.794;-1.066;2022-11-20T07:08:05;10.60;99.90
35559;DHT22;21661;50.794;-1.066;2022-11-20T07:10:31;10.60;99.90
35559;DHT22;21661;50.794;-1.066;2022-11-20T07:12:56;10.50;99.90
35559;DHT22;21661;50.794;-1.066;2022-11-20T07:15:22;10.50;99.90
35559;DHT22;21661;50.794;-1.066;2022-11-20T07:17:48;10.40;99.90
35559;DHT22;21661;50.794;-1.066;2022-11-20T07:20:14;10.30;99.90
35559;DHT22;21661;50.794;-1.066;2022-11-20T07:22:40;10.20;99.90
35559;DHT22;21661;50.794;-1.066;2022-11-20T07:25:05;10.20;99.90
35559;DHT22;21661;50.794;-1.066;2022-11-20T07:27:31;10.10;99.90
35559;DHT22;21661;50.794;-1.066;2022-11-20T07:29:56;10.10;99.90
35559;DHT22;21661;50.794;-1.066;2022-11-20T07:32:22;10.10;99.90
35559;DHT22;21661;50.794;-1.066;2022-11-20T07:34:48;10.00;99.90
35559;DHT22;21661;50.794;-1.066;2022-11-20T07:37:13;10.00;99.90
35559;DHT22;21661;50.794;-1.066;2022-11-20T07:39:39;10.00;99.90
35559;DHT22;21661;50.794;-1.066;2022-11-20T07:42:05;9.90;99.90
35559;DHT22;21661;50.794;-1.066;2022-11-20T07:44:31;9.90;99.90
35559;DHT22;21661;50.794;-1.066;2022-11-20T07:46:56;9.90;99.90
35559;DHT22;21661;50.794;-1.066;2022-11-20T07:49:22;9.90;99.90
35559;DHT22;21661;50.794;-1.066;2022-11-20T07:51:49;9.90;99.90
35559;DHT22;21661;50.794;-1.066;2022-11-20T07:54:15;9.90;99.90
35559;DHT22;21661;50.794;-1.066;2022-11-20T07:56:41;9.90;99.90
35559;DHT22;21661;50.794;-1.066;2022-11-20T07:59:06;9.80;99.90
35559;DHT22;21661;50.794;-1.066;2022-11-20T08:01:32;9.80;99.90
35559;DHT22;21661;50.794;-1.066;2022-11-20T08:03:57;9.80;99.90
35559;DHT22;21661;50.794;-1.066;2022-11-20T08:06:23;9.80;99.90
35559;DHT22;21661;50.794;-1.066;2022-11-20T08:08:50;9.70;99.90
35559;DHT22;21661;50.794;-1.066;2022-11-20T08:11:15;9.70;99.90
35559;DHT22;21661;50.794;-1.066;2022-11-20T08:13:59;9.70;99.90
35559;DHT22;21661;50.794;-1.066;2022-11-20T08:16:38;9.70;99.90
35559;DHT22;21661;50.794;-1.066;2022-11-20T08:19:03;9.70;99.90
35559;DHT22;21661;50.794;-1.066;2022-11-20T08:21:30;9.70;99.90
35559;DHT22;21661;50.794;-1.066;2022-11-20T08:23:56;9.70;99.90
35559;DHT22;21661;50.794;-1.066;2022-11-20T08:26:21;9.70;99.90
35559;DHT22;21661;50.794;-1.066;2022-11-20T08:28:47;9.70;99.90
35559;DHT22;21661;50.794;-1.066;2022-11-20T08:31:13;9.70;99.90
35559;DHT22;21661;50.794;-1.066;2022-11-20T08:33:38;9.70;99.90
35559;DHT22;21661;50.794;-1.066;2022-11-20T08:36:04;9.70;99.90
35559;DHT22;21661;50.794;-1.066;2022-11-20T08:38:30;9.70;99.90
35559;DHT22;21661;50.794;-1.066;2022-11-20T08:40:56;9.70;99.90
35559;DHT22;21661;50.794;-1.066;2022-11-20T08:43:40;9.70;99.90
35559;DHT22;21661;50.794;-1.066;2022-11-20T08:46:06;9.80;99.90
35559;DHT22;21661;50.794;-1.066;2022-11-20T08:48:31;9.70;99.90
35559;DHT22;21661;50.794;-1.066;2022-11-20T08:50:57;9.80;99.90
35559;DHT22;21661;50.794;-1.066;2022-11-20T08:53:23;9.80;99.90
35559;DHT22;21661;50.794;-1.066;2022-11-20T08:55:48;9.80;99.90
35559;DHT22;21661;50.794;-1.066;2022-11-20T08:58:14;9.70;99.90
35559;DHT22;21661;50.794;-1.066;2022-11-20T09:00:39;9.70;99.90
35559;DHT22;21661;50.794;-1.066;2022-11-20T09:03:05;9.70;99.90
35559;DHT22;21661;50.794;-1.066;2022-11-20T09:05:30;9.70;99.90
35559;DHT22;21661;50.794;-1.066;2022-11-20T09:07:56;9.70;99.90
35559;DHT22;21661;50.794;-1.066;2022-11-20T09:10:22;9.70;99.90
35559;DHT22;21661;50.794;-1.066;2022-11-20T09:12:50;9.70;99.90
35559;DHT22;21661;50.794;-1.066;2022-11-20T09:15:17;9.80;99.90
35559;DHT22;21661;50.794;-1.066;2022-11-20T09:17:42;9.80;99.90
35559;DHT22;21661;50.794;-1.066;2022-11-20T09:20:15;9.80;99.90
35559;DHT22;21661;50.794;-1.066;2022-11-20T09:22:41;9.90;99.90
35559;DHT22;21661;50.794;-1.066;2022-11-20T09:25:07;10.00;99.90
35559;DHT22;21661;50.794;-1.066;2022-11-20T09:27:32;10.00;99.90
35559;DHT22;21661;50.794;-1.066;2022-11-20T09:29:58;10.00;99.90
35559;DHT22;21661;50.794;-1.066;2022-11-20T09:32:23;10.10;99.90
35559;DHT22;21661;50.794;-1.066;2022-11-20T09:34:48;10.20;99.90
35559;DHT22;21661;50.794;-1.066;2022-11-20T09:37:14;10.20;99.90
35559;DHT22;21661;50.794;-1.066;2022-11-20T09:39:40;10.20;99.90
35559;DHT22;21661;50.794;-1.066;2022-11-20T09:42:09;10.20;99.90
35559;DHT22;21661;50.794;-1.066;2022-11-20T09:44:42;10.20;99.90
35559;DHT22;21661;50.794;-1.066;2022-11-20T09:55:00;10.50;99.90
35559;DHT22;21661;50.794;-1.066;2022-11-20T09:57:37;10.50;99.90
35559;DHT22;21661;50.794;-1.066;2022-11-20T10:00:04;10.50;99.90
35559;DHT22;21661;50.794;-1.066;2022-11-20T10:02:35;10.50;99.90
35559;DHT22;21661;50.794;-1.066;2022-11-20T10:05:10;10.60;99.90
35559;DHT22;21661;50.794;-1.066;2022-11-20T10:07:47;10.50;99.90
35559;DHT22;21661;50.794;-1.066;2022-11-20T10:10:16;10.50;99.90
35559;DHT22;21661;50.794;-1.066;2022-11-20T10:12:52;10.50;99.90
35559;DHT22;21661;50.794;-1.066;2022-11-20T10:15:25;10.50;99.90
35559;DHT22;21661;50.794;-1.066;2022-11-20T10:17:59;10.50;99.90
35559;DHT22;21661;50.794;-1.066;2022-11-20T10:20:33;10.60;99.90
35559;DHT22;21661;50.794;-1.066;2022-11-20T10:25:42;10.70;99.90
35559;DHT22;21661;50.794;-1.066;2022-11-20T10:30:40;10.70;99.90
35559;DHT22;21661;50.794;-1.066;2022-11-20T10:35:36;10.60;99.90
35559;DHT22;21661;50.794;-1.066;2022-11-20T10:38:18;10.50;99.90
35559;DHT22;21661;50.794;-1.066;2022-11-20T10:40:45;10.50;99.90
35559;DHT22;21661;50.794;-1.066;2022-11-20T10:45:52;10.50;99.90
35559;DHT22;21661;50.794;-1.066;2022-11-20T10:48:23;10.50;99.90
35559;DHT22;21661;50.794;-1.066;2022-11-20T10:55:57;10.60;99.90
35559;DHT22;21661;50.794;-1.066;2022-11-20T10:58:29;10.60;99.90
35559;DHT22;21661;50.794;-1.066;2022-11-20T11:01:17;10.60;99.90
35559;DHT22;21661;50.794;-1.066;2022-11-20T11:03:43;10.60;99.90
35559;DHT22;21661;50.794;-1.066;2022-11-20T11:08:41;10.80;99.90
35559;DHT22;21661;50.794;-1.066;2022-11-20T11:13:41;10.90;99.90
35559;DHT22;21661;50.794;-1.066;2022-11-20T11:16:16;10.90;99.90
35559;DHT22;21661;50.794;-1.066;2022-11-20T11:18:44;10.90;99.90
35559;DHT22;21661;50.794;-1.066;2022-11-20T11:21:10;11.00;99.90
35559;DHT22;21661;50.794;-1.066;2022-11-20T11:23:36;11.00;99.90
35559;DHT22;21661;50.794;-1.066;2022-11-20T11:26:04;11.10;99.90
35559;DHT22;21661;50.794;-1.066;2022-11-20T11:28:30;11.10;99.90
35559;DHT22;21661;50.794;-1.066;2022-11-20T11:30:55;11.20;99.90
35559;DHT22;21661;50.794;-1.066;2022-11-20T11:33:22;11.30;99.90
35559;DHT22;21661;50.794;-1.066;2022-11-20T11:35:48;11.30;99.90
35559;DHT22;21661;50.794;-1.066;2022-11-20T11:38:15;11.50;99.90
35559;DHT22;21661;50.794;-1.066;2022-11-20T11:40:41;11.50;99.90
35559;DHT22;21661;50.794;-1.066;2022-11-20T11:43:15;11.60;99.90
35559;DHT22;21661;50.794;-1.066;2022-11-20T11:46:02;11.60;99.90
35559;DHT22;21661;50.794;-1.066;2022-11-20T11:48:27;11.70;99.90
35559;DHT22;21661;50.794;-1.066;2022-11-20T11:50:53;11.60;99.90
35559;DHT22;21661;50.794;-1.066;2022-11-20T11:53:23;11.60;99.90
35559;DHT22;21661;50.794;-1.066;2022-11-20T12:01:13;11.50;99.90
35559;DHT22;21661;50.794;-1.066;2022-11-20T12:03:40;11.50;99.90
35559;DHT22;21661;50.794;-1.066;2022-11-20T12:06:16;11.40;99.90
35559;DHT22;21661;50.794;-1.066;2022-11-20T12:14:00;11.40;99.90
35559;DHT22;21661;50.794;-1.066;2022-11-20T12:16:28;11.40;99.90
35559;DHT22;21661;50.794;-1.066;2022-11-20T12:18:55;11.40;99.90
35559;DHT22;21661;50.794;-1.066;2022-11-20T12:24:04;11.30;99.90
35559;DHT22;21661;50.794;-1.066;2022-11-20T12:29:29;11.40;99.90
35559;DHT22;21661;50.794;-1.066;2022-11-20T12:39:40;11.60;99.90
35559;DHT22;21661;50.794;-1.066;2022-11-20T12:42:19;11.60;99.90
35559;DHT22;21661;50.794;-1.066;2022-11-20T12:52:47;11.70;99.90
35559;DHT22;21661;50.794;-1.066;2022-11-20T12:57:45;11.70;99.90
35559;DHT22;21661;50.794;-1.066;2022-11-20T13:08:04;11.70;99.90
35559;DHT22;21661;50.794;-1.066;2022-11-20T13:10:43;11.70;99.90
35559;DHT22;21661;50.794;-1.066;2022-11-20T13:13:23;11.70;99.90
35559;DHT22;21661;50.794;-1.066;2022-11-20T13:18:19;11.70;99.90
35559;DHT22;21661;50.794;-1.066;2022-11-20T13:20:45;11.70;99.90
35559;DHT22;21661;50.794;-1.066;2022-11-20T13:23:22;11.70;99.90
35559;DHT22;21661;50.794;-1.066;2022-11-20T13:25:47;11.70;99.90
35559;DHT22;21661;50.794;-1.066;2022-11-20T13:30:48;11.70;99.90
35559;DHT22;21661;50.794;-1.066;2022-11-20T13:36:02;11.80;99.90
35559;DHT22;21661;50.794;-1.066;2022-11-20T13:38:39;11.90;99.90
35559;DHT22;21661;50.794;-1.066;2022-11-20T13:41:07;11.90;99.90
35559;DHT22;21661;50.794;-1.066;2022-11-20T13:43:52;12.00;99.90
35559;DHT22;21661;50.794;-1.066;2022-11-20T13:46:19;12.10;99.90
35559;DHT22;21661;50.794;-1.066;2022-11-20T13:48:49;12.10;99.90
35559;DHT22;21661;50.794;-1.066;2022-11-20T13:56:31;12.30;99.90
35559;DHT22;21661;50.794;-1.066;2022-11-20T13:59:05;12.20;99.90
35559;DHT22;21661;50.794;-1.066;2022-11-20T14:01:34;12.10;99.90
35559;DHT22;21661;50.794;-1.066;2022-11-20T14:04:05;12.10;99.90
35559;DHT22;21661;50.794;-1.066;2022-11-20T14:06:32;12.10;99.90
35559;DHT22;21661;50.794;-1.066;2022-11-20T14:08:59;12.10;99.90
35559;DHT22;21661;50.794;-1.066;2022-11-20T14:11:26;12.10;99.90
35559;DHT22;21661;50.794;-1.066;2022-11-20T14:16:20;12.10;99.90
35559;DHT22;21661;50.794;-1.066;2022-11-20T14:18:46;12.20;99.90
35559;DHT22;21661;50.794;-1.066;2022-11-20T14:21:11;12.10;99.90
35559;DHT22;21661;50.794;-1.066;2022-11-20T14:23:46;12.20;99.90
35559;DHT22;21661;50.794;-1.066;2022-11-20T14:26:12;12.20;99.90
35559;DHT22;21661;50.794;-1.066;2022-11-20T14:28:39;12.10;99.90
35559;DHT22;21661;50.794;-1.066;2022-11-20T14:31:08;12.20;99.90
35559;DHT22;21661;50.794;-1.066;2022-11-20T14:33:41;12.20;99.90
35559;DHT22;21661;50.794;-1.066;2022-11-20T14:36:15;12.20;99.90
35559;DHT22;21661;50.794;-1.066;2022-11-20T14:38:41;12.10;99.90
35559;DHT22;21661;50.794;-1.066;2022-11-20T14:41:18;12.10;99.90
35559;DHT22;21661;50.794;-1.066;2022-11-20T14:43:47;12.10;99.90
35559;DHT22;21661;50.794;-1.066;2022-11-20T14:46:15;12.10;99.90
35559;DHT22;21661;50.794;-1.066;2022-11-20T14:48:41;12.10;99.90
35559;DHT22;21661;50.794;-1.066;2022-11-20T14:51:09;12.10;99.90
35559;DHT22;21661;50.794;-1.066;2022-11-20T14:53:35;12.20;99.90
35559;DHT22;21661;50.794;-1.066;2022-11-20T14:56:01;12.20;99.90
35559;DHT22;21661;50.794;-1.066;2022-11-20T14:58:31;12.20;99.90
35559;DHT22;21661;50.794;-1.066;2022-11-20T15:01:06;12.20;99.90
35559;DHT22;21661;50.794;-1.066;2022-11-20T15:03:36;12.20;99.90
35559;DHT22;21661;50.794;-1.066;2022-11-20T15:06:02;12.20;99.90
35559;DHT22;21661;50.794;-1.066;2022-11-20T15:08:28;12.30;99.90
35559;DHT22;21661;50.794;-1.066;2022-11-20T15:10:53;12.20;99.90
35559;DHT22;21661;50.794;-1.066;2022-11-20T15:13:40;12.20;99.90
35559;DHT22;21661;50.794;-1.066;2022-11-20T15:16:13;12.20;99.90
35559;DHT22;21661;50.794;-1.066;2022-11-20T15:18:41;12.20;99.90
35559;DHT22;21661;50.794;-1.066;2022-11-20T15:21:11;12.10;99.90
35559;DHT22;21661;50.794;-1.066;2022-11-20T15:23:37;12.10;99.90
35559;DHT22;21661;50.794;-1.066;2022-11-20T15:26:10;12.00;99.90
35559;DHT22;21661;50.794;-1.066;2022-11-20T15:28:37;12.00;99.90
35559;DHT22;21661;50.794;-1.066;2022-11-20T15:31:04;11.90;99.90
35559;DHT22;21661;50.794;-1.066;2022-11-20T15:33:30;11.90;99.90
35559;DHT22;21661;50.794;-1.066;2022-11-20T15:35:56;11.90;99.90
35559;DHT22;21661;50.794;-1.066;2022-11-20T15:38:22;11.80;99.90
35559;DHT22;21661;50.794;-1.066;2022-11-20T15:40:47;11.80;99.90
35559;DHT22;21661;50.794;-1.066;2022-11-20T15:43:13;11.80;99.90
35559;DHT22;21661;50.794;-1.066;2022-11-20T15:45:43;11.70;99.90
35559;DHT22;21661;50.794;-1.066;2022-11-20T15:48:13;11.70;99.90
35559;DHT22;21661;50.794;-1.066;2022-11-20T15:53:23;11.60;99.90
35559;DHT22;21661;50.794;-1.066;2022-11-20T15:55:49;11.60;99.90
35559;DHT22;21661;50.794;-1.066;2022-11-20T15:58:14;11.60;99.90
35559;DHT22;21661;50.794;-1.066;2022-11-20T16:00:42;11.50;99.90
35559;DHT22;21661;50.794;-1.066;2022-11-20T16:03:11;11.60;99.90
35559;DHT22;21661;50.794;-1.066;2022-11-20T16:05:37;11.50;99.90
35559;DHT22;21661;50.794;-1.066;2022-11-20T16:08:02;11.50;99.90
35559;DHT22;21661;50.794;-1.066;2022-11-20T16:10:28;11.50;99.90
35559;DHT22;21661;50.794;-1.066;2022-11-20T16:12:54;11.50;99.90
35559;DHT22;21661;50.794;-1.066;2022-11-20T16:15:38;11.60;99.90
35559;DHT22;21661;50.794;-1.066;2022-11-20T16:18:19;11.60;99.90
35559;DHT22;21661;50.794;-1.066;2022-11-20T16:20:45;11.50;99.90
35559;DHT22;21661;50.794;-1.066;2022-11-20T16:23:11;11.50;99.90
35559;DHT22;21661;50.794;-1.066;2022-11-20T16:25:37;11.50;99.90
35559;DHT22;21661;50.794;-1.066;2022-11-20T16:28:02;11.40;99.90
35559;DHT22;21661;50.794;-1.066;2022-11-20T16:30:28;11.30;99.90
35559;DHT22;21661;50.794;-1.066;2022-11-20T16:32:54;11.30;99.90
35559;DHT22;21661;50.794;-1.066;2022-11-20T16:35:19;11.20;99.90
35559;DHT22;21661;50.794;-1.066;2022-11-20T16:37:45;11.20;99.90
35559;DHT22;21661;50.794;-1.066;2022-11-20T16:40:10;11.10;99.90
35559;DHT22;21661;50.794;-1.066;2022-11-20T16:42:36;11.00;99.90
35559;DHT22;21661;50.794;-1.066;2022-11-20T16:45:02;11.00;99.90
35559;DHT22;21661;50.794;-1.066;2022-11-20T16:47:27;10.90;99.90
35559;DHT22;21661;50.794;-1.066;2022-11-20T16:49:53;10.90;99.90
35559;DHT22;21661;50.794;-1.066;2022-11-20T16:52:18;10.90;99.90
35559;DHT22;21661;50.794;-1.066;2022-11-20T16:54:44;10.80;99.90
35559;DHT22;21661;50.794;-1.066;2022-11-20T16:57:09;10.80;99.90
35559;DHT22;21661;50.794;-1.066;2022-11-20T16:59:35;10.70;99.90